sensor_id;sensor_type;location;lat;lon;timestamp;P1;durP1;ratioP1;P2;durP2;ratioP2
25481;SDS011;13395;50.752;4.268;2024-01-16T01:40:01;12.07;;;4.25;;
25481;SDS011;13395;50.752;4.268;2024-01-16T01:42:27;13.77;;;5.78;;
25481;SDS011;13395;50.752;4.268;2024-01-16T02:15:57;9.13;;;4.68;;
25481;SDS011;13395;50.752;4.268;2024-01-16T02:21:02;13.77;;;5.05;;
25481;SDS011;13395;50.752;4.268;2024-01-16T02:31:16;15.02;;;5.85;;
25481;SDS011;13395;50.752;4.268;2024-01-16T02:36:18;16.63;;;4.80;;
25481;SDS011;13395;50.752;4.268;2024-01-16T02:38:44;21.15;;;5.80;;
25481;SDS011;13395;50.752;4.268;2024-01-16T02:41:11;11.35;;;5.75;;
25481;SDS011;13395;50.752;4.268;2024-01-16T02:59:19;9.35;;;5.05;;
25481;SDS011;13395;50.752;4.268;2024-01-16T03:09:32;10.15;;;4.68;;
25481;SDS011;13395;50.752;4.268;2024-01-16T04:39:49;14.63;;;5.18;;
25481;SDS011;13395;50.752;4.268;2024-01-16T04:42:15;11.75;;;4.75;;
25481;SDS011;13395;50.752;4.268;2024-01-16T04:55:04;13.63;;;4.90;;
25481;SDS011;13395;50.752;4.268;2024-01-16T04:57:30;26.10;;;6.00;;
25481;SDS011;13395;50.752;4.268;2024-01-16T05:05:06;17.58;;;5.35;;
25481;SDS011;13395;50.752;4.268;2024-01-16T05:07:32;22.85;;;5.50;;
25481;SDS011;13395;50.752;4.268;2024-01-16T05:09:58;16.95;;;4.82;;
25481;SDS011;13395;50.752;4.268;2024-01-16T05:12:23;10.38;;;5.28;;
25481;SDS011;13395;50.752;4.268;2024-01-16T05:14:49;13.43;;;5.75;;
25481;SDS011;13395;50.752;4.268;2024-01-16T05:32:47;15.45;;;5.80;;
25481;SDS011;13395;50.752;4.268;2024-01-16T05:55:54;16.35;;;7.35;;
25481;SDS011;13395;50.752;4.268;2024-01-16T05:58:19;15.45;;;8.45;;
25481;SDS011;13395;50.752;4.268;2024-01-16T06:05:54;16.55;;;7.10;;
25481;SDS011;13395;50.752;4.268;2024-01-16T06:08:20;10.38;;;4.60;;
25481;SDS011;13395;50.752;4.268;2024-01-16T06:10:45;16.63;;;5.53;;
25481;SDS011;13395;50.752;4.268;2024-01-16T06:23:33;11.90;;;5.63;;
25481;SDS011;13395;50.752;4.268;2024-01-16T06:31:09;9.98;;;5.00;;
25481;SDS011;13395;50.752;4.268;2024-01-16T06:33:35;15.52;;;5.93;;
25481;SDS011;13395;50.752;4.268;2024-01-16T06:36:02;17.33;;;6.32;;
25481;SDS011;13395;50.752;4.268;2024-01-16T06:38:29;24.25;;;6.95;;
25481;SDS011;13395;50.752;4.268;2024-01-16T06:40:56;18.08;;;7.65;;
25481;SDS011;13395;50.752;4.268;2024-01-16T06:43:22;17.35;;;6.72;;
25481;SDS011;13395;50.752;4.268;2024-01-16T06:45:47;17.15;;;6.68;;
25481;SDS011;13395;50.752;4.268;2024-01-16T06:48:13;11.18;;;5.43;;
25481;SDS011;13395;50.752;4.268;2024-01-16T06:50:38;16.98;;;5.93;;
25481;SDS011;13395;50.752;4.268;2024-01-16T06:53:04;14.55;;;5.78;;
25481;SDS011;13395;50.752;4.268;2024-01-16T06:55:30;14.05;;;6.05;;
25481;SDS011;13395;50.752;4.268;2024-01-16T06:57:55;13.75;;;5.80;;
25481;SDS011;13395;50.752;4.268;2024-01-16T07:00:21;12.75;;;5.90;;
25481;SDS011;13395;50.752;4.268;2024-01-16T07:02:50;15.60;;;5.45;;
25481;SDS011;13395;50.752;4.268;2024-01-16T07:05:16;12.32;;;6.50;;
25481;SDS011;13395;50.752;4.268;2024-01-16T07:07:42;13.55;;;6.45;;
25481;SDS011;13395;50.752;4.268;2024-01-16T07:10:08;11.90;;;5.55;;
25481;SDS011;13395;50.752;4.268;2024-01-16T07:12:38;15.55;;;6.38;;
25481;SDS011;13395;50.752;4.268;2024-01-16T07:15:05;13.70;;;5.88;;
25481;SDS011;13395;50.752;4.268;2024-01-16T07:17:31;18.30;;;7.15;;
25481;SDS011;13395;50.752;4.268;2024-01-16T07:19:56;11.30;;;6.35;;
25481;SDS011;13395;50.752;4.268;2024-01-16T07:22:23;16.70;;;6.20;;
25481;SDS011;13395;50.752;4.268;2024-01-16T07:24:49;15.15;;;5.72;;
25481;SDS011;13395;50.752;4.268;2024-01-16T07:27:15;9.77;;;5.32;;
25481;SDS011;13395;50.752;4.268;2024-01-16T07:29:40;14.90;;;5.80;;
25481;SDS011;13395;50.752;4.268;2024-01-16T07:32:06;16.17;;;4.95;;
25481;SDS011;13395;50.752;4.268;2024-01-16T07:34:32;10.43;;;5.40;;
25481;SDS011;13395;50.752;4.268;2024-01-16T07:36:58;13.73;;;5.60;;
25481;SDS011;13395;50.752;4.268;2024-01-16T07:39:23;9.50;;;5.35;;
25481;SDS011;13395;50.752;4.268;2024-01-16T07:41:49;13.50;;;5.47;;
25481;SDS011;13395;50.752;4.268;2024-01-16T07:44:15;9.90;;;5.00;;
25481;SDS011;13395;50.752;4.268;2024-01-16T07:46:40;12.60;;;6.00;;
25481;SDS011;13395;50.752;4.268;2024-01-16T07:49:06;11.48;;;5.47;;
25481;SDS011;13395;50.752;4.268;2024-01-16T07:51:31;15.23;;;4.93;;
25481;SDS011;13395;50.752;4.268;2024-01-16T07:54:07;12.23;;;6.10;;
25481;SDS011;13395;50.752;4.268;2024-01-16T07:56:34;17.25;;;7.97;;
25481;SDS011;13395;50.752;4.268;2024-01-16T07:59:00;17.92;;;5.97;;
25481;SDS011;13395;50.752;4.268;2024-01-16T08:01:29;10.05;;;4.50;;
25481;SDS011;13395;50.752;4.268;2024-01-16T08:03:55;17.85;;;5.60;;
25481;SDS011;13395;50.752;4.268;2024-01-16T08:06:21;21.02;;;6.18;;
25481;SDS011;13395;50.752;4.268;2024-01-16T08:08:48;14.23;;;6.10;;
25481;SDS011;13395;50.752;4.268;2024-01-16T08:11:14;15.65;;;5.38;;
25481;SDS011;13395;50.752;4.268;2024-01-16T08:13:40;10.88;;;4.93;;
25481;SDS011;13395;50.752;4.268;2024-01-16T08:16:06;16.05;;;5.53;;
25481;SDS011;13395;50.752;4.268;2024-01-16T08:18:32;13.02;;;5.32;;
25481;SDS011;13395;50.752;4.268;2024-01-16T08:20:57;15.15;;;5.18;;
25481;SDS011;13395;50.752;4.268;2024-01-16T08:23:24;18.52;;;7.85;;
25481;SDS011;13395;50.752;4.268;2024-01-16T08:25:50;18.65;;;6.20;;
25481;SDS011;13395;50.752;4.268;2024-01-16T08:28:17;13.05;;;5.63;;
25481;SDS011;13395;50.752;4.268;2024-01-16T08:30:43;10.35;;;5.38;;
25481;SDS011;13395;50.752;4.268;2024-01-16T08:33:09;14.13;;;5.03;;
25481;SDS011;13395;50.752;4.268;2024-01-16T08:35:35;12.90;;;4.93;;
25481;SDS011;13395;50.752;4.268;2024-01-16T08:38:00;16.60;;;5.20;;
25481;SDS011;13395;50.752;4.268;2024-01-16T08:40:26;9.05;;;5.03;;
25481;SDS011;13395;50.752;4.268;2024-01-16T08:42:52;12.73;;;5.25;;
25481;SDS011;13395;50.752;4.268;2024-01-16T08:45:23;12.02;;;4.32;;
25481;SDS011;13395;50.752;4.268;2024-01-16T08:47:48;12.88;;;4.82;;
25481;SDS011;13395;50.752;4.268;2024-01-16T08:50:15;13.25;;;4.65;;
25481;SDS011;13395;50.752;4.268;2024-01-16T08:52:41;11.70;;;4.97;;
25481;SDS011;13395;50.752;4.268;2024-01-16T08:55:07;10.63;;;4.57;;
25481;SDS011;13395;50.752;4.268;2024-01-16T08:57:34;13.35;;;4.68;;
25481;SDS011;13395;50.752;4.268;2024-01-16T08:59:59;14.60;;;5.00;;
25481;SDS011;13395;50.752;4.268;2024-01-16T09:02:25;13.73;;;4.85;;
25481;SDS011;13395;50.752;4.268;2024-01-16T09:04:54;13.80;;;4.85;;
25481;SDS011;13395;50.752;4.268;2024-01-16T09:07:20;11.50;;;4.43;;
25481;SDS011;13395;50.752;4.268;2024-01-16T09:09:46;10.85;;;4.60;;
25481;SDS011;13395;50.752;4.268;2024-01-16T09:12:11;19.88;;;5.18;;
25481;SDS011;13395;50.752;4.268;2024-01-16T09:14:37;13.82;;;4.93;;
25481;SDS011;13395;50.752;4.268;2024-01-16T09:17:03;16.20;;;4.65;;
25481;SDS011;13395;50.752;4.268;2024-01-16T09:19:29;9.40;;;4.35;;
25481;SDS011;13395;50.752;4.268;2024-01-16T09:21:55;12.00;;;5.05;;
25481;SDS011;13395;50.752;4.268;2024-01-16T09:24:21;11.88;;;5.22;;
25481;SDS011;13395;50.752;4.268;2024-01-16T09:26:47;11.02;;;5.10;;
25481;SDS011;13395;50.752;4.268;2024-01-16T09:29:12;10.48;;;4.80;;
25481;SDS011;13395;50.752;4.268;2024-01-16T09:31:39;11.50;;;4.68;;
25481;SDS011;13395;50.752;4.268;2024-01-16T09:34:08;14.95;;;5.57;;
25481;SDS011;13395;50.752;4.268;2024-01-16T09:36:34;17.20;;;4.90;;
25481;SDS011;13395;50.752;4.268;2024-01-16T09:39:03;13.23;;;4.43;;
25481;SDS011;13395;50.752;4.268;2024-01-16T09:41:33;9.55;;;3.75;;
25481;SDS011;13395;50.752;4.268;2024-01-16T09:43:59;8.82;;;3.70;;
25481;SDS011;13395;50.752;4.268;2024-01-16T09:46:25;15.57;;;4.32;;
25481;SDS011;13395;50.752;4.268;2024-01-16T09:48:53;10.38;;;4.10;;
25481;SDS011;13395;50.752;4.268;2024-01-16T09:51:20;9.73;;;4.32;;
25481;SDS011;13395;50.752;4.268;2024-01-16T09:53:46;11.23;;;4.13;;
25481;SDS011;13395;50.752;4.268;2024-01-16T09:56:13;13.32;;;4.90;;
25481;SDS011;13395;50.752;4.268;2024-01-16T09:58:40;7.80;;;4.88;;
25481;SDS011;13395;50.752;4.268;2024-01-16T10:01:08;8.52;;;4.57;;
25481;SDS011;13395;50.752;4.268;2024-01-16T10:03:34;9.25;;;3.80;;
25481;SDS011;13395;50.752;4.268;2024-01-16T10:06:02;8.75;;;3.72;;
25481;SDS011;13395;50.752;4.268;2024-01-16T10:08:31;8.98;;;4.32;;
25481;SDS011;13395;50.752;4.268;2024-01-16T10:10:57;18.90;;;5.38;;
25481;SDS011;13395;50.752;4.268;2024-01-16T10:13:23;8.13;;;4.05;;
25481;SDS011;13395;50.752;4.268;2024-01-16T10:15:49;8.88;;;3.90;;
25481;SDS011;13395;50.752;4.268;2024-01-16T10:18:27;8.02;;;3.95;;
25481;SDS011;13395;50.752;4.268;2024-01-16T10:20:57;9.10;;;4.75;;
25481;SDS011;13395;50.752;4.268;2024-01-16T10:23:26;7.88;;;4.25;;
25481;SDS011;13395;50.752;4.268;2024-01-16T10:26:09;13.55;;;4.93;;
25481;SDS011;13395;50.752;4.268;2024-01-16T10:28:39;12.65;;;3.90;;
25481;SDS011;13395;50.752;4.268;2024-01-16T10:31:09;20.13;;;4.18;;
25481;SDS011;13395;50.752;4.268;2024-01-16T10:33:38;15.07;;;4.32;;
25481;SDS011;13395;50.752;4.268;2024-01-16T10:38:34;10.25;;;3.92;;
25481;SDS011;13395;50.752;4.268;2024-01-16T10:41:13;10.65;;;4.00;;
25481;SDS011;13395;50.752;4.268;2024-01-16T10:43:43;10.02;;;3.80;;
25481;SDS011;13395;50.752;4.268;2024-01-16T10:46:12;16.02;;;3.95;;
25481;SDS011;13395;50.752;4.268;2024-01-16T10:48:40;10.90;;;3.50;;
25481;SDS011;13395;50.752;4.268;2024-01-16T10:51:08;11.30;;;3.90;;
25481;SDS011;13395;50.752;4.268;2024-01-16T10:53:37;12.98;;;4.40;;
25481;SDS011;13395;50.752;4.268;2024-01-16T10:56:06;8.98;;;3.53;;
25481;SDS011;13395;50.752;4.268;2024-01-16T10:58:36;13.30;;;4.35;;
25481;SDS011;13395;50.752;4.268;2024-01-16T11:01:05;13.95;;;4.20;;
25481;SDS011;13395;50.752;4.268;2024-01-16T11:03:40;5.47;;;2.88;;
25481;SDS011;13395;50.752;4.268;2024-01-16T11:06:18;9.38;;;3.40;;
25481;SDS011;13395;50.752;4.268;2024-01-16T11:08:47;8.65;;;3.55;;
25481;SDS011;13395;50.752;4.268;2024-01-16T11:11:14;13.23;;;3.80;;
25481;SDS011;13395;50.752;4.268;2024-01-16T11:13:41;9.80;;;4.15;;
25481;SDS011;13395;50.752;4.268;2024-01-16T11:16:10;9.75;;;3.13;;
25481;SDS011;13395;50.752;4.268;2024-01-16T11:18:36;13.27;;;3.72;;
25481;SDS011;13395;50.752;4.268;2024-01-16T11:21:02;9.20;;;3.72;;
25481;SDS011;13395;50.752;4.268;2024-01-16T11:23:33;15.55;;;4.97;;
25481;SDS011;13395;50.752;4.268;2024-01-16T11:26:23;16.20;;;3.70;;
25481;SDS011;13395;50.752;4.268;2024-01-16T11:29:49;8.85;;;3.45;;
25481;SDS011;13395;50.752;4.268;2024-01-16T11:31:53;9.77;;;3.88;;
25481;SDS011;13395;50.752;4.268;2024-01-16T11:37:07;8.68;;;3.45;;
25481;SDS011;13395;50.752;4.268;2024-01-16T11:39:34;9.48;;;3.80;;
25481;SDS011;13395;50.752;4.268;2024-01-16T11:42:00;9.63;;;3.60;;
25481;SDS011;13395;50.752;4.268;2024-01-16T11:44:42;11.25;;;4.30;;
25481;SDS011;13395;50.752;4.268;2024-01-16T11:47:20;9.73;;;4.05;;
25481;SDS011;13395;50.752;4.268;2024-01-16T11:49:47;6.43;;;3.45;;
25481;SDS011;13395;50.752;4.268;2024-01-16T11:52:13;10.95;;;3.10;;
25481;SDS011;13395;50.752;4.268;2024-01-16T11:54:40;8.63;;;2.85;;
25481;SDS011;13395;50.752;4.268;2024-01-16T12:05:13;9.05;;;3.13;;
25481;SDS011;13395;50.752;4.268;2024-01-16T12:07:46;12.52;;;3.63;;
25481;SDS011;13395;50.752;4.268;2024-01-16T12:10:20;8.60;;;3.08;;
25481;SDS011;13395;50.752;4.268;2024-01-16T12:12:49;17.88;;;5.57;;
25481;SDS011;13395;50.752;4.268;2024-01-16T12:15:19;13.98;;;3.67;;
25481;SDS011;13395;50.752;4.268;2024-01-16T12:20:26;10.15;;;3.00;;
25481;SDS011;13395;50.752;4.268;2024-01-16T12:22:56;9.60;;;3.20;;
25481;SDS011;13395;50.752;4.268;2024-01-16T12:25:27;6.40;;;3.42;;
25481;SDS011;13395;50.752;4.268;2024-01-16T12:27:55;9.25;;;3.60;;
25481;SDS011;13395;50.752;4.268;2024-01-16T12:30:29;8.38;;;3.92;;
25481;SDS011;13395;50.752;4.268;2024-01-16T12:33:05;14.63;;;4.07;;
25481;SDS011;13395;50.752;4.268;2024-01-16T12:35:36;12.82;;;4.43;;
25481;SDS011;13395;50.752;4.268;2024-01-16T12:38:04;7.80;;;2.90;;
25481;SDS011;13395;50.752;4.268;2024-01-16T12:40:31;8.27;;;3.13;;
25481;SDS011;13395;50.752;4.268;2024-01-16T12:42:58;12.93;;;2.85;;
25481;SDS011;13395;50.752;4.268;2024-01-16T12:45:24;11.18;;;3.33;;
25481;SDS011;13395;50.752;4.268;2024-01-16T12:47:51;7.10;;;3.17;;
25481;SDS011;13395;50.752;4.268;2024-01-16T12:50:23;15.40;;;4.30;;
25481;SDS011;13395;50.752;4.268;2024-01-16T12:52:50;9.32;;;3.47;;
25481;SDS011;13395;50.752;4.268;2024-01-16T12:55:25;13.85;;;3.55;;
25481;SDS011;13395;50.752;4.268;2024-01-16T12:58:11;7.13;;;3.22;;
25481;SDS011;13395;50.752;4.268;2024-01-16T13:00:37;8.00;;;2.85;;
25481;SDS011;13395;50.752;4.268;2024-01-16T13:03:04;8.35;;;3.08;;
25481;SDS011;13395;50.752;4.268;2024-01-16T13:05:30;12.80;;;2.85;;
25481;SDS011;13395;50.752;4.268;2024-01-16T13:08:03;10.30;;;3.05;;
25481;SDS011;13395;50.752;4.268;2024-01-16T13:10:28;7.43;;;3.08;;
25481;SDS011;13395;50.752;4.268;2024-01-16T13:13:12;8.75;;;3.05;;
25481;SDS011;13395;50.752;4.268;2024-01-16T13:15:45;12.05;;;3.22;;
25481;SDS011;13395;50.752;4.268;2024-01-16T13:18:18;7.00;;;4.00;;
25481;SDS011;13395;50.752;4.268;2024-01-16T13:20:50;13.07;;;4.30;;
25481;SDS011;13395;50.752;4.268;2024-01-16T13:23:18;8.05;;;3.58;;
25481;SDS011;13395;50.752;4.268;2024-01-16T13:25:45;9.45;;;3.80;;
25481;SDS011;13395;50.752;4.268;2024-01-16T13:28:15;7.15;;;3.45;;
25481;SDS011;13395;50.752;4.268;2024-01-16T13:30:42;10.77;;;3.58;;
25481;SDS011;13395;50.752;4.268;2024-01-16T13:33:08;7.38;;;2.78;;
25481;SDS011;13395;50.752;4.268;2024-01-16T13:35:35;6.35;;;2.67;;
25481;SDS011;13395;50.752;4.268;2024-01-16T13:38:04;9.15;;;3.20;;
25481;SDS011;13395;50.752;4.268;2024-01-16T13:40:31;10.68;;;3.58;;
25481;SDS011;13395;50.752;4.268;2024-01-16T13:42:57;11.32;;;4.20;;
25481;SDS011;13395;50.752;4.268;2024-01-16T13:45:24;5.88;;;2.80;;
25481;SDS011;13395;50.752;4.268;2024-01-16T13:47:49;7.50;;;3.28;;
25481;SDS011;13395;50.752;4.268;2024-01-16T13:50:15;6.72;;;2.42;;
25481;SDS011;13395;50.752;4.268;2024-01-16T13:52:42;7.78;;;2.38;;
25481;SDS011;13395;50.752;4.268;2024-01-16T13:55:08;7.93;;;2.55;;
25481;SDS011;13395;50.752;4.268;2024-01-16T13:57:34;7.38;;;2.85;;
25481;SDS011;13395;50.752;4.268;2024-01-16T14:00:04;5.15;;;2.50;;
25481;SDS011;13395;50.752;4.268;2024-01-16T14:02:32;8.18;;;3.45;;
25481;SDS011;13395;50.752;4.268;2024-01-16T14:04:59;9.73;;;3.00;;
25481;SDS011;13395;50.752;4.268;2024-01-16T14:07:25;9.57;;;4.35;;
25481;SDS011;13395;50.752;4.268;2024-01-16T14:09:51;5.00;;;3.05;;
25481;SDS011;13395;50.752;4.268;2024-01-16T14:12:17;8.40;;;3.90;;
25481;SDS011;13395;50.752;4.268;2024-01-16T14:14:44;6.88;;;3.65;;
25481;SDS011;13395;50.752;4.268;2024-01-16T14:17:10;5.93;;;2.90;;
25481;SDS011;13395;50.752;4.268;2024-01-16T14:19:36;7.60;;;3.03;;
25481;SDS011;13395;50.752;4.268;2024-01-16T14:22:03;8.20;;;3.38;;
25481;SDS011;13395;50.752;4.268;2024-01-16T14:24:29;10.30;;;3.45;;
25481;SDS011;13395;50.752;4.268;2024-01-16T14:26:55;6.43;;;3.40;;
25481;SDS011;13395;50.752;4.268;2024-01-16T14:29:24;13.18;;;3.72;;
25481;SDS011;13395;50.752;4.268;2024-01-16T14:31:50;7.15;;;3.58;;
25481;SDS011;13395;50.752;4.268;2024-01-16T14:34:16;8.68;;;4.00;;
25481;SDS011;13395;50.752;4.268;2024-01-16T14:36:42;9.05;;;3.80;;
25481;SDS011;13395;50.752;4.268;2024-01-16T14:39:08;8.48;;;3.53;;
25481;SDS011;13395;50.752;4.268;2024-01-16T14:41:41;8.82;;;3.75;;
25481;SDS011;13395;50.752;4.268;2024-01-16T14:44:08;11.98;;;3.60;;
25481;SDS011;13395;50.752;4.268;2024-01-16T14:46:35;6.15;;;3.25;;
25481;SDS011;13395;50.752;4.268;2024-01-16T14:49:00;8.75;;;3.55;;
25481;SDS011;13395;50.752;4.268;2024-01-16T14:51:27;7.93;;;3.20;;
25481;SDS011;13395;50.752;4.268;2024-01-16T14:53:53;11.80;;;3.65;;
25481;SDS011;13395;50.752;4.268;2024-01-16T14:56:18;7.65;;;3.58;;
25481;SDS011;13395;50.752;4.268;2024-01-16T14:58:45;6.60;;;3.47;;
25481;SDS011;13395;50.752;4.268;2024-01-16T15:01:11;10.30;;;3.63;;
25481;SDS011;13395;50.752;4.268;2024-01-16T15:03:36;17.63;;;4.95;;
25481;SDS011;13395;50.752;4.268;2024-01-16T15:06:02;9.75;;;4.20;;
25481;SDS011;13395;50.752;4.268;2024-01-16T15:08:30;10.55;;;5.22;;
25481;SDS011;13395;50.752;4.268;2024-01-16T15:10:57;9.57;;;3.63;;
25481;SDS011;13395;50.752;4.268;2024-01-16T15:13:27;10.40;;;3.88;;
25481;SDS011;13395;50.752;4.268;2024-01-16T15:15:52;8.52;;;3.78;;
25481;SDS011;13395;50.752;4.268;2024-01-16T15:18:20;10.02;;;4.05;;
25481;SDS011;13395;50.752;4.268;2024-01-16T15:20:46;9.75;;;5.28;;
25481;SDS011;13395;50.752;4.268;2024-01-16T15:23:12;12.93;;;4.50;;
25481;SDS011;13395;50.752;4.268;2024-01-16T15:25:38;7.05;;;4.13;;
25481;SDS011;13395;50.752;4.268;2024-01-16T15:28:03;17.30;;;5.80;;
25481;SDS011;13395;50.752;4.268;2024-01-16T15:30:29;13.13;;;5.90;;
25481;SDS011;13395;50.752;4.268;2024-01-16T15:32:58;12.52;;;6.32;;
25481;SDS011;13395;50.752;4.268;2024-01-16T15:35:24;18.67;;;5.75;;
25481;SDS011;13395;50.752;4.268;2024-01-16T15:37:49;14.95;;;4.78;;
25481;SDS011;13395;50.752;4.268;2024-01-16T15:40:15;13.82;;;4.00;;
25481;SDS011;13395;50.752;4.268;2024-01-16T15:42:41;8.40;;;4.38;;
25481;SDS011;13395;50.752;4.268;2024-01-16T15:45:07;8.80;;;4.50;;
25481;SDS011;13395;50.752;4.268;2024-01-16T15:47:36;13.68;;;7.22;;
25481;SDS011;13395;50.752;4.268;2024-01-16T15:50:02;12.38;;;6.05;;
25481;SDS011;13395;50.752;4.268;2024-01-16T15:52:29;19.50;;;8.10;;
25481;SDS011;13395;50.752;4.268;2024-01-16T15:54:55;16.63;;;7.28;;
25481;SDS011;13395;50.752;4.268;2024-01-16T15:57:21;18.55;;;9.40;;
25481;SDS011;13395;50.752;4.268;2024-01-16T15:59:47;7.93;;;6.35;;
25481;SDS011;13395;50.752;4.268;2024-01-16T16:02:13;11.20;;;7.45;;
25481;SDS011;13395;50.752;4.268;2024-01-16T16:04:39;12.30;;;8.60;;
25481;SDS011;13395;50.752;4.268;2024-01-16T16:07:06;13.85;;;6.90;;
25481;SDS011;13395;50.752;4.268;2024-01-16T16:09:32;9.48;;;5.45;;
25481;SDS011;13395;50.752;4.268;2024-01-16T16:12:00;18.35;;;6.03;;
25481;SDS011;13395;50.752;4.268;2024-01-16T16:14:29;14.38;;;5.70;;
25481;SDS011;13395;50.752;4.268;2024-01-16T16:17:00;16.67;;;6.70;;
25481;SDS011;13395;50.752;4.268;2024-01-16T16:19:27;18.60;;;9.20;;
25481;SDS011;13395;50.752;4.268;2024-01-16T16:21:54;26.38;;;11.00;;
25481;SDS011;13395;50.752;4.268;2024-01-16T16:24:20;24.92;;;9.90;;
25481;SDS011;13395;50.752;4.268;2024-01-16T16:26:46;18.17;;;8.95;;
25481;SDS011;13395;50.752;4.268;2024-01-16T16:29:12;17.30;;;8.50;;
25481;SDS011;13395;50.752;4.268;2024-01-16T16:31:41;16.77;;;7.25;;
25481;SDS011;13395;50.752;4.268;2024-01-16T16:34:07;14.63;;;8.27;;
25481;SDS011;13395;50.752;4.268;2024-01-16T16:36:36;15.13;;;8.52;;
25481;SDS011;13395;50.752;4.268;2024-01-16T16:39:03;17.58;;;9.15;;
25481;SDS011;13395;50.752;4.268;2024-01-16T16:41:30;17.45;;;9.10;;
25481;SDS011;13395;50.752;4.268;2024-01-16T16:43:56;14.13;;;8.35;;
25481;SDS011;13395;50.752;4.268;2024-01-16T16:46:24;18.27;;;9.82;;
25481;SDS011;13395;50.752;4.268;2024-01-16T16:48:53;21.55;;;12.43;;
25481;SDS011;13395;50.752;4.268;2024-01-16T16:51:20;26.58;;;14.55;;
25481;SDS011;13395;50.752;4.268;2024-01-16T16:53:47;30.30;;;12.48;;
25481;SDS011;13395;50.752;4.268;2024-01-16T16:56:13;22.75;;;12.43;;
25481;SDS011;13395;50.752;4.268;2024-01-16T17:01:11;19.55;;;10.50;;
25481;SDS011;13395;50.752;4.268;2024-01-16T17:03:37;19.27;;;10.38;;
25481;SDS011;13395;50.752;4.268;2024-01-16T17:06:05;18.80;;;10.27;;
25481;SDS011;13395;50.752;4.268;2024-01-16T17:08:31;14.93;;;8.20;;
25481;SDS011;13395;50.752;4.268;2024-01-16T17:10:57;16.83;;;9.90;;
25481;SDS011;13395;50.752;4.268;2024-01-16T17:13:24;19.85;;;10.10;;
25481;SDS011;13395;50.752;4.268;2024-01-16T17:15:51;26.27;;;11.70;;
25481;SDS011;13395;50.752;4.268;2024-01-16T17:18:17;23.08;;;12.57;;
25481;SDS011;13395;50.752;4.268;2024-01-16T17:20:43;30.65;;;14.07;;
25481;SDS011;13395;50.752;4.268;2024-01-16T17:23:09;26.23;;;13.68;;
25481;SDS011;13395;50.752;4.268;2024-01-16T17:25:34;20.13;;;13.70;;
25481;SDS011;13395;50.752;4.268;2024-01-16T17:28:00;27.33;;;15.23;;
25481;SDS011;13395;50.752;4.268;2024-01-16T17:30:26;43.97;;;20.15;;
25481;SDS011;13395;50.752;4.268;2024-01-16T17:32:51;39.45;;;17.23;;
25481;SDS011;13395;50.752;4.268;2024-01-16T17:35:17;32.58;;;15.02;;
25481;SDS011;13395;50.752;4.268;2024-01-16T17:37:44;20.42;;;12.95;;
25481;SDS011;13395;50.752;4.268;2024-01-16T17:40:10;21.98;;;10.60;;
25481;SDS011;13395;50.752;4.268;2024-01-16T17:42:39;21.00;;;11.30;;
25481;SDS011;13395;50.752;4.268;2024-01-16T17:45:05;16.35;;;10.98;;
25481;SDS011;13395;50.752;4.268;2024-01-16T17:47:33;20.90;;;11.38;;
25481;SDS011;13395;50.752;4.268;2024-01-16T17:49:59;20.65;;;11.98;;
25481;SDS011;13395;50.752;4.268;2024-01-16T17:52:25;22.50;;;11.18;;
25481;SDS011;13395;50.752;4.268;2024-01-16T17:54:51;27.02;;;13.02;;
25481;SDS011;13395;50.752;4.268;2024-01-16T17:57:17;22.20;;;13.63;;
25481;SDS011;13395;50.752;4.268;2024-01-16T17:59:42;23.20;;;13.02;;
25481;SDS011;13395;50.752;4.268;2024-01-16T18:02:08;28.60;;;14.45;;
25481;SDS011;13395;50.752;4.268;2024-01-16T18:04:37;27.48;;;13.68;;
25481;SDS011;13395;50.752;4.268;2024-01-16T18:07:03;32.35;;;13.77;;
25481;SDS011;13395;50.752;4.268;2024-01-16T18:09:29;27.33;;;13.15;;
25481;SDS011;13395;50.752;4.268;2024-01-16T18:11:55;31.85;;;14.05;;
25481;SDS011;13395;50.752;4.268;2024-01-16T18:14:26;26.45;;;13.88;;
25481;SDS011;13395;50.752;4.268;2024-01-16T18:16:55;29.48;;;14.35;;
25481;SDS011;13395;50.752;4.268;2024-01-16T18:19:22;27.17;;;14.52;;
25481;SDS011;13395;50.752;4.268;2024-01-16T18:21:51;41.78;;;18.05;;
25481;SDS011;13395;50.752;4.268;2024-01-16T18:24:17;37.95;;;18.23;;
25481;SDS011;13395;50.752;4.268;2024-01-16T18:26:43;34.78;;;16.85;;
25481;SDS011;13395;50.752;4.268;2024-01-16T18:29:10;34.67;;;17.60;;
25481;SDS011;13395;50.752;4.268;2024-01-16T18:31:36;24.77;;;15.07;;
25481;SDS011;13395;50.752;4.268;2024-01-16T18:34:02;35.55;;;16.35;;
25481;SDS011;13395;50.752;4.268;2024-01-16T18:36:37;33.22;;;16.45;;
25481;SDS011;13395;50.752;4.268;2024-01-16T18:39:03;28.55;;;15.02;;
25481;SDS011;13395;50.752;4.268;2024-01-16T18:41:29;31.60;;;18.15;;
25481;SDS011;13395;50.752;4.268;2024-01-16T18:43:55;30.05;;;15.38;;
25481;SDS011;13395;50.752;4.268;2024-01-16T18:46:21;20.67;;;12.73;;
25481;SDS011;13395;50.752;4.268;2024-01-16T18:48:48;22.38;;;12.43;;
25481;SDS011;13395;50.752;4.268;2024-01-16T18:51:14;24.42;;;11.80;;
25481;SDS011;13395;50.752;4.268;2024-01-16T18:53:40;22.48;;;12.52;;
25481;SDS011;13395;50.752;4.268;2024-01-16T18:56:05;20.40;;;12.18;;
25481;SDS011;13395;50.752;4.268;2024-01-16T18:58:31;22.13;;;12.18;;
25481;SDS011;13395;50.752;4.268;2024-01-16T19:00:57;25.67;;;12.30;;
25481;SDS011;13395;50.752;4.268;2024-01-16T19:03:26;48.17;;;22.80;;
25481;SDS011;13395;50.752;4.268;2024-01-16T19:05:51;29.52;;;17.02;;
25481;SDS011;13395;50.752;4.268;2024-01-16T19:08:21;25.58;;;14.98;;
25481;SDS011;13395;50.752;4.268;2024-01-16T19:10:50;22.92;;;14.23;;
25481;SDS011;13395;50.752;4.268;2024-01-16T19:13:16;24.67;;;14.25;;
25481;SDS011;13395;50.752;4.268;2024-01-16T19:15:42;23.25;;;13.23;;
25481;SDS011;13395;50.752;4.268;2024-01-16T19:18:07;30.67;;;14.88;;
25481;SDS011;13395;50.752;4.268;2024-01-16T19:20:34;28.25;;;14.55;;
25481;SDS011;13395;50.752;4.268;2024-01-16T19:23:00;27.25;;;15.50;;
25481;SDS011;13395;50.752;4.268;2024-01-16T19:25:28;28.75;;;14.77;;
25481;SDS011;13395;50.752;4.268;2024-01-16T19:27:53;35.15;;;17.35;;
25481;SDS011;13395;50.752;4.268;2024-01-16T19:30:19;38.38;;;17.63;;
25481;SDS011;13395;50.752;4.268;2024-01-16T19:32:45;31.88;;;15.82;;
25481;SDS011;13395;50.752;4.268;2024-01-16T19:35:12;33.50;;;15.80;;
25481;SDS011;13395;50.752;4.268;2024-01-16T19:37:38;31.63;;;16.23;;
25481;SDS011;13395;50.752;4.268;2024-01-16T19:40:05;31.48;;;16.77;;
25481;SDS011;13395;50.752;4.268;2024-01-16T19:42:33;30.65;;;15.65;;
25481;SDS011;13395;50.752;4.268;2024-01-16T19:44:59;29.63;;;14.27;;
25481;SDS011;13395;50.752;4.268;2024-01-16T19:47:25;29.77;;;16.77;;
25481;SDS011;13395;50.752;4.268;2024-01-16T19:49:51;33.83;;;15.57;;
25481;SDS011;13395;50.752;4.268;2024-01-16T19:52:17;25.85;;;14.10;;
25481;SDS011;13395;50.752;4.268;2024-01-16T19:54:43;26.23;;;12.85;;
25481;SDS011;13395;50.752;4.268;2024-01-16T19:57:09;27.33;;;14.38;;
25481;SDS011;13395;50.752;4.268;2024-01-16T19:59:39;30.10;;;14.50;;
25481;SDS011;13395;50.752;4.268;2024-01-16T20:02:05;21.50;;;12.63;;
25481;SDS011;13395;50.752;4.268;2024-01-16T20:04:33;23.33;;;12.73;;
25481;SDS011;13395;50.752;4.268;2024-01-16T20:06:59;25.27;;;12.20;;
25481;SDS011;13395;50.752;4.268;2024-01-16T20:09:25;27.60;;;13.88;;
25481;SDS011;13395;50.752;4.268;2024-01-16T20:11:51;20.13;;;11.95;;
25481;SDS011;13395;50.752;4.268;2024-01-16T20:14:17;23.17;;;12.38;;
25481;SDS011;13395;50.752;4.268;2024-01-16T20:16:42;22.08;;;11.13;;
25481;SDS011;13395;50.752;4.268;2024-01-16T20:19:08;20.25;;;11.48;;
25481;SDS011;13395;50.752;4.268;2024-01-16T20:21:34;21.73;;;11.10;;